createdAt,value
2022-08-04T00:03:06.780Z,30.10
2022-08-04T00:06:00.998Z,30.00
2022-08-04T00:08:53.120Z,30.00
2022-08-04T00:11:47.275Z,29.90
2022-08-04T00:14:36.599Z,29.90
2022-08-04T00:17:30.136Z,29.80
2022-08-04T00:20:20.924Z,29.70
2022-08-04T00:23:09.527Z,29.70
2022-08-04T00:25:58.017Z,29.70
2022-08-04T00:28:46.514Z,29.60
2022-08-04T00:31:56.713Z,29.50
2022-08-04T00:34:43.460Z,29.40
2022-08-04T00:37:33.277Z,29.20
2022-08-04T00:40:29.924Z,29.10
2022-08-04T00:43:24.307Z,28.90
2022-08-04T00:46:40.385Z,28.70
2022-08-04T00:50:09.239Z,28.60
2022-08-04T00:53:10.838Z,28.40
2022-08-04T00:56:25.787Z,28.20
2022-08-04T00:59:22.612Z,28.10
2022-08-04T01:02:17.515Z,28.00
2022-08-04T01:05:07.859Z,28.00
2022-08-04T01:08:13.312Z,27.90
2022-08-04T01:11:08.393Z,28.00
2022-08-04T01:14:07.037Z,28.00
2022-08-04T01:17:01.196Z,28.00
2022-08-04T01:20:06.480Z,28.10
2022-08-04T01:23:40.484Z,28.10
2022-08-04T01:26:57.723Z,28.10
2022-08-04T01:29:51.069Z,28.10
2022-08-04T01:32:49.615Z,28.10
2022-08-04T01:35:46.510Z,28.00
2022-08-04T01:38:37.681Z,28.00
2022-08-04T01:41:32.910Z,28.00
2022-08-04T01:44:21.580Z,27.90
2022-08-04T01:47:11.594Z,27.90
2022-08-04T01:50:06.335Z,27.90
2022-08-04T01:52:56.193Z,27.90
2022-08-04T01:55:55.136Z,27.80
2022-08-04T01:58:44.092Z,27.80
2022-08-04T02:01:37.122Z,27.70
2022-08-04T02:04:27.029Z,27.70
2022-08-04T02:07:27.453Z,27.70
2022-08-04T02:10:22.869Z,27.70
2022-08-04T02:13:16.918Z,27.60
2022-08-04T02:16:09.315Z,27.60
2022-08-04T02:19:03.134Z,27.50
2022-08-04T02:21:58.543Z,27.50
2022-08-04T02:24:51.387Z,27.40
2022-08-04T02:28:12.686Z,27.30
2022-08-04T02:31:24.340Z,27.30
2022-08-04T02:34:22.545Z,27.20
2022-08-04T02:37:12.497Z,27.20
2022-08-04T02:40:02.717Z,27.10
2022-08-04T02:42:51.227Z,27.10
2022-08-04T02:45:39.859Z,27.10
2022-08-04T02:48:31.216Z,27.00
2022-08-04T02:51:24.198Z,27.10
2022-08-04T02:54:14.657Z,27.10
2022-08-04T02:57:04.403Z,27.10
2022-08-04T03:00:07.859Z,27.10
2022-08-04T03:03:13.809Z,27.10
2022-08-04T03:06:50.653Z,27.10
2022-08-04T03:10:13.364Z,27.10
2022-08-04T03:13:31.273Z,27.10
2022-08-04T03:17:01.644Z,27.10
2022-08-04T03:20:33.895Z,27.10
2022-08-04T03:24:01.167Z,27.20
2022-08-04T03:27:12.498Z,27.20
2022-08-04T03:30:09.246Z,27.20
2022-08-04T03:33:37.679Z,27.20
2022-08-04T03:36:53.788Z,27.30
2022-08-04T03:40:26.822Z,27.40
2022-08-04T03:44:00.001Z,27.40
2022-08-04T03:47:18.487Z,27.50
2022-08-04T03:50:43.397Z,27.50
2022-08-04T03:53:43.822Z,27.50
2022-08-04T03:57:31.556Z,27.40
2022-08-04T04:00:21.571Z,27.40
2022-08-04T04:03:42.085Z,27.30
2022-08-04T04:07:07.272Z,27.30
2022-08-04T04:10:14.043Z,27.20
2022-08-04T04:13:15.422Z,27.20
2022-08-04T04:16:21.378Z,27.10
2022-08-04T04:19:26.123Z,27.10
2022-08-04T04:22:56.885Z,27.10
2022-08-04T04:25:56.179Z,27.00
2022-08-04T04:28:58.565Z,27.00
2022-08-04T04:32:00.777Z,26.90
2022-08-04T04:34:59.081Z,26.90
2022-08-04T04:38:12.137Z,26.90
2022-08-04T04:41:26.668Z,26.90
2022-08-04T04:44:49.537Z,26.90
2022-08-04T04:48:08.850Z,26.80
2022-08-04T04:51:07.138Z,26.80
2022-08-04T04:54:00.477Z,26.70
2022-08-04T04:56:52.582Z,26.70
2022-08-04T04:59:46.237Z,26.60
2022-08-04T05:03:28.321Z,26.60
2022-08-04T05:06:30.934Z,26.60
2022-08-04T05:09:43.702Z,26.60
2022-08-04T05:14:38.229Z,26.60
2022-08-04T05:16:08.367Z,26.60
2022-08-04T05:19:04.922Z,26.60
2022-08-04T05:22:03.506Z,26.60
2022-08-04T05:24:56.483Z,26.70
2022-08-04T05:27:47.718Z,26.70
2022-08-04T05:30:47.047Z,26.70
2022-08-04T05:33:40.775Z,26.90
2022-08-04T05:36:41.249Z,27.10
2022-08-04T05:39:38.167Z,27.40
2022-08-04T05:42:27.238Z,27.60
2022-08-04T05:45:15.755Z,27.90
2022-08-04T05:48:04.966Z,28.00
2022-08-04T05:50:56.473Z,28.30
2022-08-04T05:53:49.069Z,28.60
2022-08-04T05:56:37.812Z,28.90
2022-08-04T05:59:26.509Z,29.30
2022-08-04T06:02:16.828Z,29.50
2022-08-04T06:05:07.704Z,29.70
2022-08-04T06:08:12.225Z,29.90
2022-08-04T06:11:06.605Z,30.00
2022-08-04T06:13:57.931Z,30.00
2022-08-04T06:16:51.183Z,30.10
2022-08-04T06:19:59.746Z,30.10
2022-08-04T06:22:53.562Z,30.10
2022-08-04T06:25:45.766Z,30.10
2022-08-04T06:28:35.648Z,30.20
2022-08-04T06:32:26.932Z,30.20
2022-08-04T06:34:53.823Z,30.20
2022-08-04T06:37:44.401Z,30.30
2022-08-04T06:40:34.436Z,30.30
2022-08-04T06:43:23.342Z,30.20
2022-08-04T06:46:14.923Z,30.20
2022-08-04T06:49:04.729Z,30.20
2022-08-04T06:51:53.205Z,30.20
2022-08-04T06:54:41.658Z,30.20
2022-08-04T06:57:31.643Z,30.30
2022-08-04T07:00:20.214Z,30.30
2022-08-04T07:03:10.031Z,30.40
2022-08-04T07:05:58.528Z,30.40
2022-08-04T07:08:54.407Z,30.50
2022-08-04T07:11:44.538Z,30.60
2022-08-04T07:14:36.010Z,30.70
2022-08-04T07:17:24.497Z,30.80
2022-08-04T07:20:34.593Z,30.90
2022-08-04T07:23:25.872Z,31.00
2022-08-04T07:26:15.713Z,31.20
2022-08-04T07:29:04.242Z,31.30
2022-08-04T07:31:52.866Z,31.40
2022-08-04T07:34:41.601Z,31.50
2022-08-04T07:37:39.177Z,31.70
2022-08-04T07:40:28.706Z,31.80
2022-08-04T07:43:17.391Z,32.00
2022-08-04T07:46:06.015Z,32.20
2022-08-04T07:48:55.548Z,32.30
2022-08-04T07:51:44.084Z,32.50
2022-08-04T07:54:34.121Z,32.70
2022-08-04T07:57:40.714Z,32.90
2022-08-04T08:00:30.422Z,33.00
2022-08-04T08:03:21.639Z,33.20
2022-08-04T08:06:31.725Z,33.40
2022-08-04T08:09:21.229Z,33.50
2022-08-04T08:12:35.189Z,33.60
2022-08-04T08:15:20.497Z,33.70
2022-08-04T08:18:08.999Z,33.90
2022-08-04T08:20:57.586Z,34.00
2022-08-04T08:23:46.094Z,34.20
2022-08-04T08:26:36.069Z,34.30
2022-08-04T08:29:25.972Z,34.40
2022-08-04T08:32:14.516Z,34.50
2022-08-04T08:35:03.041Z,34.60
2022-08-04T08:37:56.344Z,34.70
2022-08-04T08:40:59.627Z,34.80
2022-08-04T08:44:06.228Z,35.00
2022-08-04T08:47:09.470Z,35.00
2022-08-04T08:50:47.537Z,35.10
2022-08-04T08:54:14.605Z,35.20
2022-08-04T08:57:18.400Z,35.30
2022-08-04T09:00:14.106Z,35.50
2022-08-04T09:03:40.063Z,35.60
2022-08-04T09:06:55.364Z,35.80
2022-08-04T09:09:54.403Z,35.90
2022-08-04T09:12:51.529Z,36.00
2022-08-04T09:15:45.784Z,36.20
2022-08-04T09:18:38.970Z,36.30
2022-08-04T09:21:33.175Z,36.40
2022-08-04T09:24:35.381Z,36.50
2022-08-04T09:27:28.541Z,36.50
2022-08-04T09:30:20.247Z,36.50
2022-08-04T09:33:16.255Z,36.60
2022-08-04T09:36:09.694Z,36.70
2022-08-04T09:39:13.165Z,36.80
2022-08-04T09:42:16.284Z,36.90
2022-08-04T09:45:13.446Z,37.00
2022-08-04T09:48:11.208Z,37.20
2022-08-04T09:51:00.732Z,37.30
2022-08-04T09:53:58.757Z,37.50
2022-08-04T09:56:55.315Z,37.50
2022-08-04T09:59:49.242Z,37.50
2022-08-04T10:02:39.765Z,37.60
2022-08-04T10:05:39.349Z,37.60
2022-08-04T10:08:39.959Z,37.70
2022-08-04T10:11:55.448Z,37.80
2022-08-04T10:14:53.896Z,38.00
2022-08-04T10:18:10.841Z,38.10
2022-08-04T10:21:11.609Z,38.20
2022-08-04T10:24:15.547Z,38.30
2022-08-04T10:27:10.523Z,38.40
2022-08-04T10:30:03.776Z,38.40
2022-08-04T10:32:59.797Z,38.50
2022-08-04T10:35:51.615Z,38.50
2022-08-04T10:38:47.071Z,38.60
2022-08-04T10:41:39.429Z,38.70
2022-08-04T10:44:41.889Z,38.80
2022-08-04T10:47:36.240Z,38.90
2022-08-04T10:50:25.481Z,38.90
2022-08-04T10:53:18.407Z,39.00
2022-08-04T10:56:12.121Z,39.10
2022-08-04T10:59:04.240Z,39.30
2022-08-04T11:02:01.559Z,39.50
2022-08-04T11:04:57.731Z,39.70
2022-08-04T11:07:48.439Z,39.80
2022-08-04T11:10:41.361Z,39.80
2022-08-04T11:13:35.219Z,40.00
2022-08-04T11:16:27.454Z,40.00
2022-08-04T11:19:45.298Z,40.10
2022-08-04T11:22:38.076Z,40.20
2022-08-04T11:25:29.028Z,40.30
2022-08-04T11:28:34.230Z,40.30
2022-08-04T11:31:24.939Z,40.40
2022-08-04T11:34:22.302Z,40.50
2022-08-04T11:37:15.034Z,40.60
2022-08-04T11:40:10.628Z,40.50
2022-08-04T11:43:02.915Z,40.50
2022-08-04T11:45:55.780Z,40.50
2022-08-04T11:48:54.036Z,40.50
2022-08-04T11:51:44.105Z,40.50
2022-08-04T11:54:33.560Z,40.50
2022-08-04T11:57:22.805Z,40.70
2022-08-04T12:00:24.103Z,40.80
2022-08-04T12:03:32.529Z,41.00
2022-08-04T12:06:30.135Z,41.00
2022-08-04T12:09:28.491Z,41.00
2022-08-04T12:12:22.170Z,41.10
2022-08-04T12:15:27.914Z,41.10
2022-08-04T12:18:22.766Z,41.10
2022-08-04T12:21:16.908Z,41.10
2022-08-04T12:24:13.943Z,41.20
2022-08-04T12:27:11.729Z,41.40
2022-08-04T12:30:59.925Z,41.40
2022-08-04T12:33:17.864Z,41.50
2022-08-04T12:36:21.014Z,41.50
2022-08-04T12:39:14.070Z,41.50
2022-08-04T12:42:19.492Z,41.50
2022-08-04T12:45:10.262Z,41.50
2022-08-04T12:48:00.728Z,41.50
2022-08-04T12:50:49.965Z,41.50
2022-08-04T12:53:51.368Z,41.50
2022-08-04T12:56:40.725Z,41.60
2022-08-04T12:59:30.695Z,41.70
2022-08-04T13:02:25.216Z,41.70
2022-08-04T13:05:16.780Z,41.80
2022-08-04T13:08:06.181Z,41.70
2022-08-04T13:10:55.030Z,41.60
2022-08-04T13:13:43.574Z,41.60
2022-08-04T13:16:34.178Z,41.50
2022-08-04T13:19:22.706Z,41.50
2022-08-04T13:22:12.110Z,41.50
2022-08-04T13:26:41.623Z,41.50
2022-08-04T13:28:14.427Z,41.50
2022-08-04T13:31:06.418Z,41.60
2022-08-04T13:34:05.217Z,41.60
2022-08-04T13:36:56.202Z,41.50
2022-08-04T13:39:55.709Z,41.50
2022-08-04T13:42:48.218Z,41.50
2022-08-04T13:45:36.772Z,41.50
2022-08-04T13:48:32.433Z,41.60
2022-08-04T13:51:23.843Z,41.60
2022-08-04T13:54:42.420Z,41.60
2022-08-04T13:57:32.211Z,41.60
2022-08-04T14:00:29.900Z,41.60
2022-08-04T14:03:26.135Z,41.50
2022-08-04T14:06:17.153Z,41.50
2022-08-04T14:09:14.791Z,41.40
2022-08-04T14:12:38.992Z,41.30
2022-08-04T14:16:01.282Z,41.20
2022-08-04T14:19:00.443Z,41.10
2022-08-04T14:21:49.708Z,41.00
2022-08-04T14:24:39.594Z,40.90
2022-08-04T14:27:29.833Z,40.80
2022-08-04T14:30:26.680Z,40.80
2022-08-04T14:34:02.631Z,40.70
2022-08-04T14:36:24.107Z,40.80
2022-08-04T14:39:14.106Z,40.80
2022-08-04T14:42:04.013Z,40.80
2022-08-04T14:44:56.686Z,40.90
2022-08-04T14:47:52.820Z,40.90
2022-08-04T14:50:43.420Z,41.00
2022-08-04T14:53:32.056Z,41.10
2022-08-04T14:56:37.818Z,41.10
2022-08-04T14:59:42.007Z,41.10
2022-08-04T15:02:47.842Z,41.00
2022-08-04T15:06:02.651Z,41.00
2022-08-04T15:08:47.350Z,41.00
2022-08-04T15:11:40.178Z,41.00
2022-08-04T15:14:37.670Z,41.00
2022-08-04T15:17:29.926Z,41.00
2022-08-04T15:20:18.883Z,41.00
2022-08-04T15:23:10.788Z,41.00
2022-08-04T15:26:01.538Z,41.00
2022-08-04T15:28:52.829Z,41.00
2022-08-04T15:32:07.330Z,41.00
2022-08-04T15:34:53.128Z,41.00
2022-08-04T15:37:50.506Z,41.00
2022-08-04T15:40:46.724Z,41.00
2022-08-04T15:43:55.392Z,41.00
2022-08-04T15:47:13.391Z,41.00
2022-08-04T15:50:10.045Z,41.00
2022-08-04T15:53:10.422Z,41.00
2022-08-04T15:56:01.715Z,41.00
2022-08-04T15:58:52.828Z,41.00
2022-08-04T16:01:41.561Z,41.00
2022-08-04T16:04:52.248Z,41.10
2022-08-04T16:07:56.680Z,41.00
2022-08-04T16:10:49.879Z,41.00
2022-08-04T16:13:38.351Z,41.00
2022-08-04T16:16:28.538Z,41.00
2022-08-04T16:19:35.205Z,40.90
2022-08-04T16:22:37.861Z,40.80
2022-08-04T16:25:46.453Z,40.70
2022-08-04T16:28:40.404Z,40.70
2022-08-04T16:31:28.909Z,40.60
2022-08-04T16:34:48.457Z,40.60
2022-08-04T16:37:35.903Z,40.50
2022-08-04T16:40:38.557Z,40.50
2022-08-04T16:43:29.649Z,40.50
2022-08-04T16:46:41.236Z,40.50
2022-08-04T16:49:51.920Z,40.50
2022-08-04T16:52:45.185Z,40.50
2022-08-04T16:55:33.636Z,40.50
2022-08-04T16:58:32.928Z,40.50
2022-08-04T17:01:33.678Z,40.50
2022-08-04T17:04:29.967Z,40.40
2022-08-04T17:07:18.484Z,40.40
2022-08-04T17:10:09.279Z,40.30
2022-08-04T17:13:20.652Z,40.30
2022-08-04T17:16:13.125Z,40.30
2022-08-04T17:19:02.445Z,40.30
2022-08-04T17:21:50.889Z,40.30
2022-08-04T17:24:40.709Z,40.20
2022-08-04T17:28:19.192Z,40.20
2022-08-04T17:30:39.671Z,40.20
2022-08-04T17:33:54.299Z,40.20
2022-08-04T17:36:44.002Z,40.20
2022-08-04T17:39:34.980Z,40.10
2022-08-04T17:42:35.499Z,40.10
2022-08-04T17:45:50.675Z,40.10
2022-08-04T17:48:33.694Z,40.00
2022-08-04T17:52:05.606Z,40.00
2022-08-04T17:54:37.104Z,40.00
2022-08-04T17:57:28.104Z,39.90
2022-08-04T18:00:19.686Z,39.80
2022-08-04T18:03:08.508Z,39.70
2022-08-04T18:06:03.353Z,39.50
2022-08-04T18:08:58.779Z,39.40
2022-08-04T18:11:57.798Z,39.20
2022-08-04T18:14:49.134Z,39.00
2022-08-04T18:18:20.776Z,38.80
2022-08-04T18:20:49.967Z,38.60
2022-08-04T18:23:50.534Z,38.30
2022-08-04T18:26:40.059Z,38.00
2022-08-04T18:29:31.872Z,37.70
2022-08-04T18:32:23.855Z,37.40
2022-08-04T18:35:23.689Z,37.10
2022-08-04T18:38:32.122Z,36.70
2022-08-04T18:41:20.619Z,36.40
2022-08-04T18:44:09.169Z,36.20
2022-08-04T18:51:00.120Z,35.60
2022-08-04T18:53:20.517Z,35.30
2022-08-04T18:56:19.996Z,35.10
2022-08-04T18:59:17.708Z,34.80
2022-08-04T19:02:16.732Z,34.60
2022-08-04T19:05:06.539Z,34.50
2022-08-04T19:08:02.394Z,34.20
2022-08-04T19:11:01.577Z,34.00
2022-08-04T19:14:13.691Z,33.80
2022-08-04T19:17:02.424Z,33.60
2022-08-04T19:20:02.943Z,33.40
2022-08-04T19:24:27.077Z,33.20
2022-08-04T19:26:04.968Z,33.00
2022-08-04T19:28:56.868Z,32.90
2022-08-04T19:31:45.371Z,32.70
2022-08-04T19:34:35.070Z,32.60
2022-08-04T19:37:55.953Z,32.50
2022-08-04T19:40:32.775Z,32.40
2022-08-04T19:43:23.934Z,32.30
2022-08-04T19:46:12.609Z,32.30
2022-08-04T19:49:01.285Z,32.30
2022-08-04T19:51:51.803Z,32.30
2022-08-04T19:54:43.227Z,32.20
2022-08-04T19:57:41.323Z,32.20
2022-08-04T20:00:33.731Z,32.20
2022-08-04T20:03:23.004Z,32.10
2022-08-04T20:06:31.499Z,32.10
2022-08-04T20:09:25.859Z,32.00
2022-08-04T20:12:15.409Z,32.00
2022-08-04T20:15:04.447Z,31.90
2022-08-04T20:18:07.514Z,31.90
2022-08-04T20:21:02.825Z,31.90
2022-08-04T20:23:51.356Z,31.80
2022-08-04T20:26:39.894Z,31.80
2022-08-04T20:29:40.198Z,31.80
2022-08-04T20:32:29.703Z,31.80
2022-08-04T20:35:19.736Z,31.80
2022-08-04T20:38:08.257Z,31.80
2022-08-04T20:41:18.939Z,31.80
2022-08-04T20:44:10.779Z,31.70
2022-08-04T20:46:59.520Z,31.70
2022-08-04T20:49:50.197Z,31.80
2022-08-04T20:52:42.090Z,31.70
2022-08-04T20:55:30.624Z,31.60
2022-08-04T20:58:19.114Z,31.50
2022-08-04T21:01:15.861Z,31.50
2022-08-04T21:04:28.286Z,31.50
2022-08-04T21:07:17.768Z,31.40
2022-08-04T21:10:08.875Z,31.40
2022-08-04T21:12:57.376Z,31.40
2022-08-04T21:15:57.832Z,31.40
2022-08-04T21:18:47.408Z,31.40
2022-08-04T21:21:38.060Z,31.50
2022-08-04T21:24:27.123Z,31.50
2022-08-04T21:27:17.049Z,31.50
2022-08-04T21:30:08.876Z,31.60
2022-08-04T21:33:12.853Z,31.60
2022-08-04T21:36:03.163Z,31.70
2022-08-04T21:38:52.481Z,31.70
2022-08-04T21:42:10.213Z,31.70
2022-08-04T21:44:51.457Z,31.60
2022-08-04T21:47:46.687Z,31.60
2022-08-04T21:50:38.299Z,31.50
2022-08-04T21:53:30.281Z,31.40
2022-08-04T21:56:18.859Z,31.40
2022-08-04T21:59:15.312Z,31.30
2022-08-04T22:02:05.486Z,31.30
2022-08-04T22:04:56.510Z,31.20
2022-08-04T22:07:50.371Z,31.20
2022-08-04T22:10:40.161Z,31.20
2022-08-04T22:13:52.640Z,31.20
2022-08-04T22:16:41.429Z,31.20
2022-08-04T22:19:50.789Z,31.30
2022-08-04T22:22:41.040Z,31.30
2022-08-04T22:25:31.368Z,31.30
2022-08-04T22:28:19.916Z,31.30
2022-08-04T22:31:23.769Z,31.30
2022-08-04T22:34:12.975Z,31.30
2022-08-04T22:37:02.817Z,31.30
2022-08-04T22:40:01.074Z,31.20
2022-08-04T22:42:50.280Z,31.20
2022-08-04T22:45:45.169Z,31.20
2022-08-04T22:48:34.314Z,31.20
2022-08-04T22:51:23.066Z,31.10
2022-08-04T22:54:17.269Z,31.10
2022-08-04T22:57:06.222Z,31.00
2022-08-04T22:59:56.710Z,31.00
2022-08-04T23:02:49.554Z,30.90
2022-08-04T23:05:38.267Z,30.90
2022-08-04T23:08:26.798Z,30.80
2022-08-04T23:11:20.807Z,30.70
2022-08-04T23:14:09.267Z,30.70
2022-08-04T23:16:57.753Z,30.70
2022-08-04T23:19:57.624Z,30.60
2022-08-04T23:22:47.409Z,30.50
2022-08-04T23:26:08.338Z,30.50
2022-08-04T23:28:56.392Z,30.50
2022-08-04T23:31:59.034Z,30.40
2022-08-04T23:34:49.074Z,30.40
2022-08-04T23:37:37.627Z,30.40
2022-08-04T23:40:50.292Z,30.30
2022-08-04T23:43:55.153Z,30.30
2022-08-04T23:46:45.370Z,30.30
2022-08-04T23:49:44.559Z,30.30
2022-08-04T23:52:33.803Z,30.30
2022-08-04T23:55:23.125Z,30.30
2022-08-04T23:58:18.604Z,30.20
